Linville, North Carolina
Current Conditions -  °F | °C
As of 10:35 AM on Friday 28 Nov 2014 (Local Time) from KTNB Reporting Station
Broken Clouds Broken Clouds  
Wind Chill: 14°   Ceiling: 1700
Heat Index: 24°   Visibility: 10mi
Dew Point: 16°   Wind: 10mph
Humidity: 72%   Direction: 280°W
Pressure: 30.28"   Gusts: 16mph
Location:  36.07°N, 81.87°W
Report Text: KTNB 281535Z AUTO 28009G14KT 10SM BKN017 M04/M09 A3028 RMK AO2 T10441088
Loading
Personal Weather Stations






























Interactive Weather Map New forecast layout! Learn more

10-Day Weather Forecast

Advertisements
Track Severe Weather on mobile